TimeCDT,TemperatureF,Dew PointF,Humidity,Sea Level PressureIn,VisibilityMPH,Wind Direction,Wind SpeedMPH,Gust SpeedMPH,PrecipitationIn,Events,Conditions,WindDirDegrees,DateUTC
12:15 AM,24.8,21.2,86,30.23,10.0,NNW,15.0,-,0.00,,Overcast,340,2013-03-25 05:15:00
12:35 AM,23.0,21.2,93,30.23,10.0,NNW,16.1,-,0.00,,Overcast,340,2013-03-25 05:35:00
12:55 AM,23.0,21.2,93,30.23,10.0,NNW,15.0,-,0.00,,Overcast,340,2013-03-25 05:55:00
1:15 AM,23.0,21.2,93,30.23,10.0,NNW,16.1,-,0.00,,Overcast,340,2013-03-25 06:15:00
1:35 AM,23.0,21.2,93,30.23,10.0,NNW,16.1,-,0.00,,Overcast,340,2013-03-25 06:35:00
1:55 AM,23.0,19.4,86,30.23,10.0,NNW,16.1,-,0.00,,Overcast,340,2013-03-25 06:55:00
2:15 AM,23.0,19.4,86,30.23,10.0,NNW,12.7,-,0.00,,Overcast,340,2013-03-25 07:15:00
2:35 AM,23.0,19.4,86,30.23,10.0,NNW,15.0,-,0.00,,Overcast,340,2013-03-25 07:35:00
2:55 AM,23.0,19.4,86,30.23,10.0,NNW,13.8,-,0.00,,Overcast,340,2013-03-25 07:55:00
3:15 AM,23.0,19.4,86,30.23,10.0,NNW,15.0,-,0.00,,Overcast,340,2013-03-25 08:15:00
3:35 AM,23.0,19.4,86,30.23,10.0,NNW,15.0,-,0.00,,Overcast,340,2013-03-25 08:35:00
3:55 AM,23.0,19.4,86,30.23,10.0,NNW,15.0,-,0.00,,Overcast,340,2013-03-25 08:55:00
4:15 AM,21.2,17.6,86,30.23,10.0,NNW,15.0,-,0.00,,Overcast,340,2013-03-25 09:15:00
4:35 AM,21.2,17.6,86,30.22,9.0,NNW,15.0,-,0.00,,Overcast,340,2013-03-25 09:35:00
4:55 AM,21.2,17.6,86,30.23,8.0,NNW,16.1,-,0.00,,Overcast,340,2013-03-25 09:55:00
5:15 AM,21.2,17.6,86,30.24,4.0,NNW,15.0,-,0.00,,Overcast,340,2013-03-25 10:15:00
5:35 AM,21.2,17.6,86,30.24,6.0,NNW,15.0,-,0.00,,Overcast,340,2013-03-25 10:35:00
5:55 AM,21.2,17.6,86,30.24,7.0,NNW,15.0,-,0.00,,Overcast,330,2013-03-25 10:55:00
6:15 AM,21.2,17.6,86,30.25,8.0,NNW,15.0,-,0.00,,Overcast,330,2013-03-25 11:15:00
6:35 AM,21.2,17.6,86,30.26,5.0,NNW,16.1,-,0.00,,Overcast,330,2013-03-25 11:35:00
6:55 AM,21.2,17.6,86,30.26,8.0,NNW,16.1,-,0.00,,Overcast,340,2013-03-25 11:55:00
7:15 AM,21.2,17.6,86,30.27,10.0,NNW,15.0,-,0.00,,Overcast,340,2013-03-25 12:15:00
7:35 AM,21.2,17.6,86,30.27,4.0,NNW,15.0,-,0.00,,Overcast,340,2013-03-25 12:35:00
7:55 AM,21.2,17.6,86,30.28,3.0,NNW,15.0,-,0.00,,Overcast,330,2013-03-25 12:55:00
8:15 AM,21.2,17.6,86,30.29,7.0,NNW,13.8,-,0.00,,Overcast,330,2013-03-25 13:15:00
8:35 AM,21.2,17.6,86,30.29,10.0,NNW,15.0,-,0.00,,Overcast,330,2013-03-25 13:35:00
8:55 AM,21.2,17.6,86,30.29,10.0,NNW,16.1,-,0.00,,Overcast,340,2013-03-25 13:55:00
9:15 AM,21.2,17.6,86,30.29,10.0,NNW,15.0,-,0.00,,Overcast,340,2013-03-25 14:15:00
9:35 AM,21.2,17.6,86,30.30,10.0,NNW,15.0,21.9,0.00,,Overcast,340,2013-03-25 14:35:00
9:55 AM,21.2,17.6,86,30.30,10.0,NNW,15.0,-,0.00,,Overcast,340,2013-03-25 14:55:00
10:15 AM,23.0,17.6,80,30.31,10.0,NNW,15.0,-,0.00,,Overcast,340,2013-03-25 15:15:00
10:35 AM,23.0,19.4,86,30.31,9.0,North,16.1,-,0.00,,Overcast,350,2013-03-25 15:35:00
10:55 AM,23.0,19.4,86,30.32,10.0,North,17.3,-,0.00,,Overcast,350,2013-03-25 15:55:00
11:15 AM,23.0,19.4,86,30.32,9.0,North,17.3,-,0.00,,Overcast,350,2013-03-25 16:15:00
11:35 AM,23.0,19.4,86,30.33,9.0,North,17.3,-,0.00,,Overcast,360,2013-03-25 16:35:00
11:55 AM,24.8,19.4,80,30.33,10.0,North,16.1,-,0.00,,Overcast,350,2013-03-25 16:55:00
12:15 PM,24.8,19.4,80,30.33,10.0,North,18.4,-,0.00,,Overcast,350,2013-03-25 17:15:00
12:35 PM,26.6,19.4,74,30.32,10.0,North,17.3,-,0.00,,Overcast,350,2013-03-25 17:35:00
12:55 PM,26.6,19.4,74,30.32,10.0,NNW,18.4,-,0.00,,Overcast,340,2013-03-25 17:55:00
1:15 PM,26.6,19.4,74,30.32,10.0,North,18.4,-,0.00,,Overcast,350,2013-03-25 18:15:00
1:35 PM,26.6,19.4,74,30.32,9.0,NNW,19.6,-,0.00,,Overcast,340,2013-03-25 18:35:00
1:55 PM,26.6,19.4,74,30.32,10.0,NNW,18.4,-,0.00,,Overcast,340,2013-03-25 18:55:00
2:15 PM,26.6,19.4,74,30.32,10.0,NNW,18.4,-,0.00,,Overcast,340,2013-03-25 19:15:00
2:35 PM,26.6,19.4,74,30.32,10.0,NNW,16.1,-,0.00,,Overcast,340,2013-03-25 19:35:00
2:55 PM,26.6,19.4,74,30.31,10.0,NNW,17.3,-,0.00,,Overcast,340,2013-03-25 19:55:00
3:15 PM,26.6,19.4,74,30.31,10.0,North,17.3,-,0.00,,Overcast,350,2013-03-25 20:15:00
3:35 PM,26.6,17.6,69,30.31,10.0,NNW,15.0,-,0.00,,Overcast,330,2013-03-25 20:35:00
3:55 PM,26.6,19.4,74,30.32,10.0,NNW,16.1,-,0.00,,Overcast,330,2013-03-25 20:55:00
4:15 PM,26.6,17.6,69,30.32,10.0,NNW,15.0,-,0.00,,Overcast,340,2013-03-25 21:15:00
4:35 PM,26.6,19.4,74,30.32,10.0,NW,17.3,-,0.00,,Overcast,320,2013-03-25 21:35:00
4:55 PM,26.6,19.4,74,30.32,10.0,NW,16.1,-,0.00,,Overcast,320,2013-03-25 21:55:00
5:15 PM,26.6,19.4,74,30.32,10.0,NW,16.1,-,0.00,,Mostly Cloudy,320,2013-03-25 22:15:00
5:35 PM,26.6,19.4,74,30.32,10.0,NW,15.0,-,0.00,,Mostly Cloudy,320,2013-03-25 22:35:00
5:55 PM,26.6,17.6,69,30.32,10.0,NNW,13.8,-,0.00,,Scattered Clouds,330,2013-03-25 22:55:00
6:15 PM,24.8,17.6,74,30.32,10.0,NW,12.7,-,0.00,,Clear,320,2013-03-25 23:15:00
6:35 PM,24.8,17.6,74,30.33,10.0,NW,11.5,-,0.00,,Clear,320,2013-03-25 23:35:00
6:55 PM,23.0,17.6,80,30.33,10.0,NW,10.4,-,0.00,,Clear,310,2013-03-25 23:55:00
7:15 PM,23.0,17.6,80,30.33,10.0,NW,11.5,-,0.00,,Clear,310,2013-03-26 00:15:00
7:35 PM,23.0,17.6,80,30.33,10.0,NW,12.7,-,0.00,,Clear,310,2013-03-26 00:35:00
7:55 PM,23.0,15.8,74,30.34,10.0,NW,12.7,-,0.00,,Scattered Clouds,310,2013-03-26 00:55:00
8:15 PM,21.2,17.6,86,30.34,10.0,NW,12.7,-,0.00,,Scattered Clouds,310,2013-03-26 01:15:00
8:35 PM,21.2,15.8,80,30.34,10.0,NW,11.5,-,0.00,,Clear,310,2013-03-26 01:35:00
8:55 PM,19.4,15.8,86,30.34,10.0,NW,11.5,-,0.00,,Clear,310,2013-03-26 01:55:00
9:15 PM,19.4,14.0,80,30.34,10.0,NW,11.5,-,0.00,,Clear,310,2013-03-26 02:15:00
9:35 PM,19.4,14.0,80,30.34,10.0,NW,12.7,-,0.00,,Clear,310,2013-03-26 02:35:00
9:55 PM,17.6,14.0,86,30.34,10.0,NW,12.7,-,0.00,,Clear,310,2013-03-26 02:55:00
10:15 PM,17.6,14.0,86,30.34,10.0,NW,11.5,-,0.00,,Clear,310,2013-03-26 03:15:00
10:35 PM,17.6,14.0,86,30.34,10.0,NW,10.4,-,0.00,,Clear,320,2013-03-26 03:35:00
10:55 PM,15.8,12.2,86,30.34,10.0,NW,11.5,-,0.00,,Clear,320,2013-03-26 03:55:00
11:15 PM,14.0,10.4,86,30.34,10.0,NW,11.5,-,0.00,,Clear,320,2013-03-26 04:15:00
11:35 PM,14.0,10.4,86,30.34,10.0,NW,10.4,-,0.00,,Clear,320,2013-03-26 04:35:00
11:55 PM,12.2,10.4,92,30.34,10.0,NW,9.2,-,0.00,,Clear,320,2013-03-26 04:55:00